TAF LFJR
METAR LFJR
LFJR 270900Z AUTO 26012KT 240V320 9999 BKN009 OVC016 03/02 Q0994=
LFJR 270830Z AUTO 27011KT 9999 OVC009/// ///TCU 03/02 Q0994=
LFJR 270800Z AUTO 27012KT 9999 -RA OVC010 03/02 Q0993=
LFJR 270730Z AUTO 26012KT 9999 -RA BKN011/// OVC018/// ///TCU 03/02 Q0993=
LFJR 270700Z AUTO 26013KT 9999 -RA BKN014/// BKN039/// BKN052/// ///TCU 03/02 Q0993=
WC LFJR
WS LFJR
WV LFJR